Time;durP1;ratioP1;P1;durP2;ratioP2;P2;SDS_P1;SDS_P2;PMS_P1;PMS_P2;Temp;Humidity;BMP_temperature;BMP_pressure;BME280_temperature;BME280_humidity;BME280_pressure;Samples;Min_cycle;Max_cycle;Signal;HPM_P1;HPM_P2
2023/02/15 00:01:49;;;;;;;74.20;39.50;;;;;;;4.67;96.11;102440.12;103816;1277;99203;-77
2023/02/15 00:04:46;;;;;;;72.30;38.60;;;;;;;4.68;96.11;102432.96;103849;1282;98642;-78
2023/02/15 00:07:30;;;;;;;68.60;36.90;;;;;;;4.68;95.88;102433.30;103709;1283;101176;-76
2023/02/15 00:10:17;;;;;;;66.20;35.60;;;;;;;4.65;95.76;102437.21;103796;1282;98482;-75
2023/02/15 00:13:02;;;;;;;63.70;36.40;;;;;;;4.64;95.83;102439.25;103755;1281;102329;-76
2023/02/15 00:15:46;;;;;;;66.80;36.40;;;;;;;4.63;95.88;102440.69;103854;1281;99302;-76
2023/02/15 00:18:32;;;;;;;64.50;35.60;;;;;;;4.64;95.91;102441.33;103704;1281;99063;-77
2023/02/15 00:21:16;;;;;;;65.60;35.00;;;;;;;4.65;95.85;102439.54;103978;1282;97911;-76
2023/02/15 00:24:03;;;;;;;70.30;36.50;;;;;;;4.63;95.77;102434.51;103998;1290;97985;-76
2023/02/15 00:26:48;;;;;;;59.60;34.40;;;;;;;4.63;95.84;102436.80;103782;1277;102054;-76
2023/02/15 00:29:34;;;;;;;59.30;33.30;;;;;;;4.65;95.91;102436.84;103813;1280;99342;-75
2023/02/15 00:32:18;;;;;;;61.90;33.10;;;;;;;4.66;95.80;102433.81;103868;1282;99465;-76
2023/02/15 00:35:06;;;;;;;58.50;31.70;;;;;;;4.66;95.82;102432.75;103715;1282;99548;-74
2023/02/15 00:37:52;;;;;;;61.00;34.20;;;;;;;4.63;95.68;102427.84;103878;1283;98529;-76
2023/02/15 00:40:37;;;;;;;61.80;34.30;;;;;;;4.59;95.64;102423.66;103672;1282;102695;-77
2023/02/15 00:43:22;;;;;;;60.20;34.30;;;;;;;4.61;95.85;102422.46;103748;1282;99139;-76
2023/02/15 00:46:06;;;;;;;63.80;34.80;;;;;;;4.65;95.99;102426.79;103779;1283;99098;-76
2023/02/15 00:48:51;;;;;;;54.80;32.80;;;;;;;4.68;95.95;102429.23;103885;1276;99276;-77
2023/02/15 00:51:35;;;;;;;58.00;35.10;;;;;;;4.68;95.86;102427.79;103816;1280;98443;-76
2023/02/15 00:54:20;;;;;;;64.90;34.20;;;;;;;4.71;95.73;102428.16;103714;1282;101444;-77
2023/02/15 00:57:05;;;;;;;54.60;33.00;;;;;;;4.74;95.82;102425.33;103897;1282;99916;-76
2023/02/15 00:59:50;;;;;;;58.60;34.30;;;;;;;4.74;95.57;102422.14;103849;1283;99027;-76
2023/02/15 01:02:34;;;;;;;58.50;31.40;;;;;;;4.72;95.69;102417.45;103749;1277;99286;-76
2023/02/15 01:05:20;;;;;;;53.60;33.30;;;;;;;4.71;95.75;102420.18;103830;1280;97891;-76
2023/02/15 01:08:04;;;;;;;60.00;34.30;;;;;;;4.72;95.65;102418.71;103763;1283;101376;-76
2023/02/15 01:10:49;;;;;;;63.40;36.90;;;;;;;4.73;95.59;102415.29;103833;1280;100172;-76
2023/02/15 01:13:35;;;;;;;59.20;35.20;;;;;;;4.74;95.62;102411.14;103884;1280;98001;-76
2023/02/15 01:16:21;;;;;;;58.00;33.60;;;;;;;4.75;95.69;102408.73;103701;1289;98523;-76
2023/02/15 01:19:06;;;;;;;58.80;35.50;;;;;;;4.76;95.46;102402.16;106645;1277;95825;-77
2023/02/15 01:21:50;;;;;;;56.10;34.00;;;;;;;4.77;95.42;102402.23;104801;1276;102161;-77
2023/02/15 01:24:35;;;;;;;61.90;36.40;;;;;;;4.78;95.48;102401.64;103814;1276;100424;-76
2023/02/15 01:27:20;;;;;;;59.50;33.30;;;;;;;4.78;95.30;102399.00;103872;1280;99054;-76
2023/02/15 01:30:06;;;;;;;58.30;33.50;;;;;;;4.79;95.33;102398.38;103656;1277;97988;-76
2023/02/15 01:32:51;;;;;;;60.00;34.90;;;;;;;4.78;95.28;102390.71;103933;1279;98450;-76
2023/02/15 01:35:36;;;;;;;53.50;32.70;;;;;;;4.77;95.38;102389.54;103998;1280;101544;-75
2023/02/15 01:38:21;;;;;;;50.50;30.80;;;;;;;4.77;95.28;102389.89;103957;1280;100170;-76
2023/02/15 01:41:24;;;;;;;55.70;32.00;;;;;;;4.78;95.32;102386.46;103918;1277;97855;-77
2023/02/15 01:44:45;;;;;;;57.60;32.00;;;;;;;4.79;95.28;102387.95;103832;1278;97992;-77
2023/02/15 01:47:45;;;;;;;52.50;31.00;;;;;;;4.79;95.21;102383.87;103913;1283;97931;-76
2023/02/15 01:50:34;;;;;;;53.10;31.40;;;;;;;4.78;95.13;102378.50;103758;1280;102654;-76
2023/02/15 01:53:22;;;;;;;55.20;32.40;;;;;;;4.76;95.16;102375.23;103559;1281;100675;-76
2023/02/15 01:56:13;;;;;;;52.70;30.00;;;;;;;4.75;95.25;102377.61;103783;1283;98033;-76
2023/02/15 01:59:02;;;;;;;60.10;31.80;;;;;;;4.76;95.48;102378.45;106748;1281;95568;-76
2023/02/15 02:01:47;;;;;;;53.20;32.40;;;;;;;4.75;95.20;102375.85;105306;1276;98536;-78
2023/02/15 02:04:39;;;;;;;57.20;32.40;;;;;;;4.76;95.30;102376.70;103856;1276;101533;-78
2023/02/15 02:07:29;;;;;;;54.70;31.10;;;;;;;4.77;95.18;102373.26;103971;1293;100554;-78
2023/02/15 02:10:18;;;;;;;62.50;31.90;;;;;;;4.78;95.34;102369.09;104480;1279;97921;-78
2023/02/15 02:13:05;;;;;;;59.10;32.70;;;;;;;4.80;95.16;102367.75;103987;1280;99187;-77
2023/02/15 02:16:05;;;;;;;58.40;32.10;;;;;;;4.80;95.19;102364.34;105067;1276;98033;-77
2023/02/15 02:19:10;;;;;;;54.80;31.50;;;;;;;4.78;95.09;102357.56;104086;1277;102035;-76
2023/02/15 02:22:18;;;;;;;56.50;32.20;;;;;;;4.76;94.97;102359.17;103852;1277;100476;-76
2023/02/15 02:25:31;;;;;;;57.30;30.50;;;;;;;4.75;94.99;102357.47;104661;1277;98855;-75
2023/02/15 02:28:46;;;;;;;59.00;29.40;;;;;;;4.74;95.04;102356.08;103942;1280;98673;-76
2023/02/15 02:32:10;;;;;;;55.00;31.00;;;;;;;4.74;95.01;102359.63;104099;1280;98049;-76
2023/02/15 02:35:08;;;;;;;47.90;28.00;;;;;;;4.74;95.01;102352.96;104700;1277;101345;-75
2023/02/15 02:38:10;;;;;;;55.60;30.10;;;;;;;4.75;95.23;102348.83;103883;1277;101124;-76
2023/02/15 02:41:16;;;;;;;55.80;31.70;;;;;;;4.75;95.18;102348.23;103885;1276;98381;-75
2023/02/15 02:44:30;;;;;;;58.50;33.30;;;;;;;4.76;95.18;102350.52;103790;1276;98011;-76
2023/02/15 02:47:30;;;;;;;54.30;31.10;;;;;;;4.75;95.26;102345.75;103816;1277;98548;-77
2023/02/15 02:50:21;;;;;;;49.00;28.30;;;;;;;4.76;95.27;102341.49;103903;1277;102534;-76
2023/02/15 02:53:06;;;;;;;51.00;26.90;;;;;;;4.74;95.22;102341.97;103798;1281;99125;-75
2023/02/15 02:56:27;;;;;;;47.60;27.20;;;;;;;4.72;95.12;102343.33;103617;1282;98030;-75
2023/02/15 02:59:25;;;;;;;48.80;27.70;;;;;;;4.71;95.28;102348.50;103719;1281;98799;-77
2023/02/15 03:02:25;;;;;;;47.20;27.70;;;;;;;4.68;95.08;102349.26;103743;1276;98007;-76
2023/02/15 03:05:16;;;;;;;47.40;25.40;;;;;;;4.66;95.34;102346.72;103765;1282;101948;-75
2023/02/15 03:08:05;;;;;;;45.60;27.10;;;;;;;4.66;95.29;102344.24;103644;1291;99166;-75
2023/02/15 03:10:54;;;;;;;51.20;29.50;;;;;;;4.68;95.48;102344.30;104046;1283;98464;-79
2023/02/15 03:13:39;;;;;;;44.10;25.90;;;;;;;4.68;95.38;102344.30;104152;1277;98096;-76
2023/02/15 03:16:25;;;;;;;46.30;26.00;;;;;;;4.68;95.29;102344.11;103867;1282;98001;-76
2023/02/15 03:19:14;;;;;;;47.50;25.70;;;;;;;4.68;95.39;102343.20;103829;1276;103428;-76
2023/02/15 03:22:20;;;;;;;42.60;24.70;;;;;;;4.71;95.47;102342.52;103847;1276;99244;-75
2023/02/15 03:25:22;;;;;;;46.70;25.40;;;;;;;4.72;95.49;102342.60;103800;1276;99212;-76
2023/02/15 03:28:11;;;;;;;41.60;25.20;;;;;;;4.73;95.40;102340.24;103785;1277;98043;-76
2023/02/15 03:30:59;;;;;;;51.30;26.50;;;;;;;4.73;95.36;102338.98;103784;1283;97898;-76
2023/02/15 03:33:52;;;;;;;44.70;25.60;;;;;;;4.73;95.30;102341.64;104059;1276;101487;-76
2023/02/15 03:36:53;;;;;;;49.70;28.10;;;;;;;4.72;95.16;102341.69;103859;1277;99105;-76
2023/02/15 03:41:09;;;;;;;53.70;29.40;;;;;;;4.70;95.10;102341.46;103899;1283;99258;-77
2023/02/15 03:43:16;;;;;;;48.60;28.70;;;;;;;4.67;94.93;102340.63;103896;1282;98034;-77
2023/02/15 03:46:11;;;;;;;54.40;27.50;;;;;;;4.65;95.03;102340.11;103824;1277;98539;-76
2023/02/15 03:49:01;;;;;;;48.30;28.30;;;;;;;4.64;95.13;102338.94;104176;1276;101481;-78
2023/02/15 03:51:50;;;;;;;54.40;29.30;;;;;;;4.64;95.17;102340.85;103924;1281;99168;-76
2023/02/15 03:54:42;;;;;;;49.70;29.50;;;;;;;4.63;95.12;102338.30;103883;1280;99141;-75
2023/02/15 04:03:45;;;;;;;53.80;29.40;;;;;;;4.52;95.22;102332.14;103800;1276;101476;-77
2023/02/15 04:06:29;;;;;;;52.80;30.40;;;;;;;4.52;95.32;102331.27;103811;1282;100530;-77
2023/02/15 04:12:18;;;;;;;51.50;30.90;;;;;;;4.49;95.20;102324.23;103888;1277;98000;-76
2023/02/15 04:18:06;;;;;;;55.90;32.00;;;;;;;4.49;95.48;102322.46;103878;1280;102016;-77
2023/02/15 04:26:59;;;;;;;58.60;31.50;;;;;;;4.43;95.52;102321.31;103852;1280;97807;-74
2023/02/15 04:29:43;;;;;;;57.30;33.10;;;;;;;4.40;95.71;102322.89;105114;1276;97426;-76
2023/02/15 04:32:28;;;;;;;55.90;31.10;;;;;;;4.41;95.74;102322.68;103923;1277;101371;-76
2023/02/15 04:35:13;;;;;;;53.70;32.00;;;;;;;4.42;95.63;102323.98;103799;1276;99842;-76
2023/02/15 04:37:58;;;;;;;53.50;30.60;;;;;;;4.43;95.44;102321.48;103897;1276;99014;-75
2023/02/15 04:40:43;;;;;;;54.50;31.60;;;;;;;4.42;95.60;102320.34;103846;1282;97988;-76
2023/02/15 04:43:27;;;;;;;56.00;31.70;;;;;;;4.40;95.44;102320.95;103903;1276;98048;-76
2023/02/15 04:46:12;;;;;;;55.70;31.90;;;;;;;4.39;95.71;102322.44;103911;1276;101562;-77
2023/02/15 04:48:58;;;;;;;64.50;33.20;;;;;;;4.39;95.72;102324.05;103840;1276;99119;-76
2023/02/15 04:51:42;;;;;;;53.60;31.20;;;;;;;4.41;95.70;102321.99;103697;1282;98913;-76
2023/02/15 04:54:27;;;;;;;54.10;31.10;;;;;;;4.43;95.90;102322.89;103688;1277;98027;-76
2023/02/15 04:57:13;;;;;;;52.50;30.60;;;;;;;4.44;95.89;102322.76;103812;1279;98039;-76
2023/02/15 04:59:58;;;;;;;55.70;32.30;;;;;;;4.44;95.57;102320.70;103709;1276;102696;-76
2023/02/15 05:02:43;;;;;;;52.50;29.60;;;;;;;4.44;95.74;102323.20;103798;1279;99375;-77
2023/02/15 05:05:28;;;;;;;50.50;29.60;;;;;;;4.44;95.64;102325.46;103701;1276;97986;-76
2023/02/15 05:08:13;;;;;;;56.20;32.70;;;;;;;4.44;95.57;102326.67;103819;1280;98016;-76
2023/02/15 05:10:58;;;;;;;56.90;32.10;;;;;;;4.44;95.53;102330.94;103779;1280;98466;-77
2023/02/15 05:13:42;;;;;;;50.80;32.50;;;;;;;4.43;95.56;102330.13;103897;1277;101454;-76
2023/02/15 05:16:27;;;;;;;49.00;30.30;;;;;;;4.43;95.61;102330.31;103859;1276;99460;-77
2023/02/15 05:19:12;;;;;;;53.00;31.90;;;;;;;4.42;95.41;102333.88;103706;1276;98833;-76
2023/02/15 05:21:57;;;;;;;54.60;34.10;;;;;;;4.42;95.45;102335.49;103775;1277;98021;-76
2023/02/15 05:30:59;;;;;;;54.20;30.50;;;;;;;4.46;95.42;102337.52;103756;1282;100440;-76
2023/02/15 05:33:44;;;;;;;50.80;28.60;;;;;;;4.47;95.40;102337.28;103811;1280;99175;-76
2023/02/15 05:36:29;;;;;;;53.60;29.80;;;;;;;4.49;95.37;102338.19;103835;1277;97976;-75
2023/02/15 05:39:14;;;;;;;50.10;28.70;;;;;;;4.50;95.35;102341.48;103819;1279;98455;-76
2023/02/15 05:42:00;;;;;;;48.70;29.80;;;;;;;4.50;95.32;102337.39;103900;1279;101370;-78
2023/02/15 05:44:44;;;;;;;49.50;28.90;;;;;;;4.50;95.35;102340.06;103824;1280;99127;-76
2023/02/15 05:47:29;;;;;;;44.10;27.60;;;;;;;4.50;95.30;102339.52;103805;1276;98048;-76
2023/02/15 05:50:14;;;;;;;43.30;26.10;;;;;;;4.50;95.38;102338.64;103779;1280;97915;-75
2023/02/15 05:52:59;;;;;;;40.70;25.30;;;;;;;4.51;95.32;102340.70;103734;1279;97831;-76
2023/02/15 05:55:43;;;;;;;40.50;25.40;;;;;;;4.51;95.11;102339.64;103726;1283;103205;-75
2023/02/15 05:58:31;;;;;;;31.20;20.70;;;;;;;4.51;94.86;102341.80;103710;1280;99330;-76
2023/02/15 06:01:18;;;;;;;31.70;21.30;;;;;;;4.47;94.79;102345.44;103757;1280;99088;-77
2023/02/15 06:04:03;;;;;;;44.00;27.40;;;;;;;4.45;94.88;102342.37;103712;1280;99245;-76
2023/02/15 06:06:48;;;;;;;42.30;28.90;;;;;;;4.47;94.87;102343.84;103720;1280;99315;-76
2023/02/15 06:09:32;;;;;;;44.10;26.30;;;;;;;4.48;95.08;102344.97;103548;1276;101310;-77
2023/02/15 06:12:17;;;;;;;36.60;23.30;;;;;;;4.48;94.75;102343.21;103729;1283;99128;-76
2023/02/15 06:15:03;;;;;;;37.10;22.50;;;;;;;4.46;94.80;102345.29;103843;1281;98006;-76
2023/02/15 06:17:47;;;;;;;35.80;23.20;;;;;;;4.47;94.79;102343.85;103592;1282;98126;-75
2023/02/15 06:20:32;;;;;;;34.60;22.90;;;;;;;4.46;94.73;102341.78;103796;1277;98663;-76
2023/02/15 06:23:17;;;;;;;40.40;25.70;;;;;;;4.44;94.73;102341.73;103855;1280;101434;-76
2023/02/15 06:26:02;;;;;;;37.00;24.30;;;;;;;4.43;94.72;102342.48;103792;1276;100823;-75
2023/02/15 06:28:46;;;;;;;37.70;23.20;;;;;;;4.41;94.76;102344.55;103789;1280;98050;-76
2023/02/15 06:31:31;;;;;;;33.70;20.70;;;;;;;4.41;94.61;102342.15;103813;1276;98007;-76
2023/02/15 06:34:16;;;;;;;41.30;23.10;;;;;;;4.38;94.48;102338.80;103802;1282;98459;-76
2023/02/15 06:37:01;;;;;;;39.00;25.10;;;;;;;4.36;94.58;102338.59;103751;1282;101356;-76
2023/02/15 06:39:45;;;;;;;38.30;24.30;;;;;;;4.37;94.92;102334.42;103900;1280;99172;-77
2023/02/15 06:42:30;;;;;;;31.80;20.80;;;;;;;4.39;94.79;102337.14;103879;1280;98499;-77
2023/02/15 06:45:15;;;;;;;31.90;20.40;;;;;;;4.36;94.35;102337.52;103884;1279;98156;-76
2023/02/15 06:48:00;;;;;;;35.40;22.00;;;;;;;4.34;94.33;102338.72;103824;1276;98568;-77
2023/02/15 06:50:44;;;;;;;32.30;19.50;;;;;;;4.36;94.43;102341.07;103874;1280;101359;-77
2023/02/15 06:53:29;;;;;;;32.60;20.30;;;;;;;4.39;94.65;102345.07;103800;1280;99175;-77
2023/02/15 06:56:13;;;;;;;32.90;20.70;;;;;;;4.41;94.70;102341.58;103834;1277;98005;-76
2023/02/15 06:58:58;;;;;;;41.50;24.00;;;;;;;4.43;94.56;102338.81;103713;1277;99171;-76
2023/02/15 07:01:43;;;;;;;39.90;25.20;;;;;;;4.43;94.53;102346.91;103809;1277;98543;-77
2023/02/15 07:04:29;;;;;;;39.60;26.80;;;;;;;4.43;94.48;102349.08;103991;1279;101435;-76
2023/02/15 07:07:14;;;;;;;37.00;22.30;;;;;;;4.43;94.50;102342.53;104050;1276;99187;-77
2023/02/15 07:09:59;;;;;;;46.10;28.20;;;;;;;4.45;94.50;102341.49;103801;1282;99093;-77
2023/02/15 07:12:47;;;;;;;40.70;25.60;;;;;;;4.47;94.61;102342.61;103750;1276;98065;-76
2023/02/15 07:15:31;;;;;;;37.50;22.90;;;;;;;4.48;94.45;102342.01;104314;1282;99003;-77
2023/02/15 07:18:15;;;;;;;38.60;22.80;;;;;;;4.49;94.59;102338.58;103852;1282;102004;-76
2023/02/15 07:21:01;;;;;;;43.50;24.20;;;;;;;4.51;94.69;102336.09;103772;1281;99073;-77
2023/02/15 07:23:45;;;;;;;43.40;28.60;;;;;;;4.55;94.66;102336.89;103805;1277;98782;-74
2023/02/15 07:26:53;;;;;;;;;;;;;;;;;;;;;
2023/02/15 07:29:49;;;;;;;47.10;23.50;;;;;;;4.54;94.45;102337.48;105223;1276;95863;-88
2023/02/15 07:33:22;;;;;;;38.90;22.80;;;;;;;4.51;94.24;102337.02;105183;1277;101872;-84
2023/02/15 07:38:40;;;;;;;39.50;23.40;;;;;;;4.47;94.23;102325.08;96475;1279;99292;-77
2023/02/15 07:41:25;;;;;;;38.00;23.50;;;;;;;4.47;94.52;102324.71;104136;1282;98004;-85
2023/02/15 07:44:14;;;;;;;38.00;24.70;;;;;;;4.49;94.36;102322.86;104859;1280;98482;-84
2023/02/15 07:47:00;;;;;;;38.60;24.30;;;;;;;4.49;94.29;102321.23;104480;1285;102625;-85
2023/02/15 07:49:46;;;;;;;38.90;26.80;;;;;;;4.50;94.28;102318.86;104583;1282;99622;-84
2023/02/15 07:52:33;;;;;;;40.60;24.60;;;;;;;4.51;94.39;102316.28;104602;1282;98107;-84
2023/02/15 07:55:19;;;;;;;37.70;24.60;;;;;;;4.53;94.46;102312.61;104793;1279;96438;-86
2023/02/15 07:58:04;;;;;;;41.20;23.60;;;;;;;4.57;94.54;102313.23;104646;1279;97899;-78
2023/02/15 08:01:00;;;;;;;39.20;24.60;;;;;;;4.59;94.55;102313.64;104335;1279;103193;-78
2023/02/15 08:03:45;;;;;;;44.20;25.40;;;;;;;4.61;94.49;102310.65;103830;1282;99464;-78
2023/02/15 08:06:33;;;;;;;38.50;23.60;;;;;;;4.58;94.36;102311.41;104409;1282;98960;-77
2023/02/15 08:09:38;;;;;;;;;;;;;;;;;;;;;
2023/02/15 08:13:03;;;;;;;;;;;;;;;;;;;;;
2023/02/15 08:16:18;;;;;;;36.60;23.10;;;;;;;4.56;94.20;102304.96;105250;1279;104029;-92
2023/02/15 08:29:55;;;;;;;49.80;31.70;;;;;;;4.58;93.95;102294.18;104825;1277;96260;-93
2023/02/15 08:32:51;;;;;;;48.60;30.00;;;;;;;4.60;94.03;102291.98;104648;1279;102737;-76
2023/02/15 08:35:35;;;;;;;39.50;26.90;;;;;;;4.60;93.86;102287.33;103812;1279;99888;-76
2023/02/15 08:38:20;;;;;;;38.60;25.10;;;;;;;4.59;93.88;102284.25;103792;1280;98078;-76
2023/02/15 08:41:21;;;;;;;41.00;24.20;;;;;;;4.60;93.90;102285.20;103849;1277;97929;-76
2023/02/15 08:44:07;;;;;;;34.90;23.50;;;;;;;4.64;94.11;102285.27;103711;1282;98135;-76
2023/02/15 08:46:52;;;;;;;38.40;23.20;;;;;;;4.67;94.11;102285.82;104329;1279;101435;-77
2023/02/15 08:49:37;;;;;;;41.80;25.60;;;;;;;4.68;94.17;102282.57;103975;1281;99135;-76
2023/02/15 08:52:21;;;;;;;72.10;43.70;;;;;;;4.67;93.89;102282.45;103727;1276;98011;-75
2023/02/15 08:55:06;;;;;;;38.70;26.20;;;;;;;4.65;93.97;102280.98;103934;1279;98109;-76
2023/02/15 08:57:51;;;;;;;41.00;24.80;;;;;;;4.64;94.08;102275.39;103961;1276;98538;-77
2023/02/15 09:00:36;;;;;;;45.30;27.10;;;;;;;4.63;94.03;102272.63;103802;1280;101924;-77
2023/02/15 09:03:20;;;;;;;38.20;24.40;;;;;;;4.64;94.11;102271.13;103768;1282;100300;-77
2023/02/15 09:06:06;;;;;;;38.70;24.50;;;;;;;4.62;94.00;102271.11;103772;1278;97987;-76
2023/02/15 09:08:52;;;;;;;38.00;24.00;;;;;;;4.61;94.14;102268.33;103703;1282;98508;-77
2023/02/15 09:11:41;;;;;;;46.70;25.30;;;;;;;4.64;94.31;102262.46;103688;1282;99578;-76
2023/02/15 09:14:27;;;;;;;38.70;24.50;;;;;;;4.67;94.40;102259.78;103747;1282;101364;-76
2023/02/15 09:17:12;;;;;;;40.10;24.90;;;;;;;4.69;94.30;102259.77;103960;1277;99259;-75
2023/02/15 09:19:56;;;;;;;36.50;21.50;;;;;;;4.70;94.15;102259.55;103772;1282;99112;-76
2023/02/15 09:22:41;;;;;;;34.00;23.40;;;;;;;4.68;93.81;102252.08;103827;1279;98106;-75
2023/02/15 09:25:26;;;;;;;37.50;23.20;;;;;;;4.68;93.93;102249.80;103980;1275;98420;-77
2023/02/15 09:28:11;;;;;;;35.00;24.20;;;;;;;4.67;93.64;102249.85;104415;1279;101438;-84
2023/02/15 09:30:56;;;;;;;40.20;23.40;;;;;;;4.71;93.86;102248.52;105340;1277;100346;-86
2023/02/15 09:33:44;;;;;;;40.10;24.20;;;;;;;4.74;94.07;102245.16;104568;1284;98686;-83
2023/02/15 09:36:35;;;;;;;39.30;23.90;;;;;;;4.74;93.96;102239.88;104667;1276;97986;-85
2023/02/15 09:39:24;;;;;;;36.60;23.40;;;;;;;4.75;93.92;102237.11;104476;1281;98443;-83
2023/02/15 09:42:33;;;;;;;36.40;22.60;;;;;;;4.75;94.08;102241.58;104896;1280;103122;-82
2023/02/15 09:45:30;;;;;;;38.80;24.60;;;;;;;4.76;93.98;102243.06;105007;1276;99081;-84
2023/02/15 09:48:37;;;;;;;35.50;22.20;;;;;;;4.77;93.97;102238.22;105041;1277;98034;-84
2023/02/15 09:51:43;;;;;;;33.80;22.50;;;;;;;4.77;94.03;102239.96;104824;1282;97949;-83
2023/02/15 09:54:58;;;;;;;43.50;25.10;;;;;;;4.78;93.85;102237.80;104864;1277;100108;-84
2023/02/15 09:58:18;;;;;;;39.30;23.70;;;;;;;4.81;94.10;102236.34;104753;1277;101381;-82
2023/02/15 10:01:49;;;;;;;32.70;20.90;;;;;;;4.85;93.99;102233.55;104813;1277;99139;-85
2023/02/15 10:04:48;;;;;;;36.00;22.40;;;;;;;4.84;93.72;102236.29;104895;1281;98885;-79
2023/02/15 10:07:56;;;;;;;36.60;22.40;;;;;;;4.82;93.81;102233.96;104704;1277;97964;-82
2023/02/15 10:11:38;;;;;;;35.70;23.40;;;;;;;4.81;93.79;102237.59;104844;1279;98440;-90
2023/02/15 10:14:45;;;;;;;39.30;24.60;;;;;;;4.83;94.19;102231.59;103969;1277;101379;-76
2023/02/15 10:18:07;;;;;;;40.70;25.20;;;;;;;4.86;94.10;102225.69;104043;1290;100194;-76
2023/02/15 10:21:03;;;;;;;42.30;23.30;;;;;;;4.87;93.91;102220.16;104024;1282;107778;-78
2023/02/15 10:24:25;;;;;;;43.10;26.50;;;;;;;4.87;93.94;102218.17;103966;1279;97931;-76
2023/02/15 10:27:15;;;;;;;47.10;28.00;;;;;;;4.87;93.94;102220.50;103865;1283;98023;-77
2023/02/15 10:30:14;;;;;;;44.00;24.20;;;;;;;4.87;93.64;102220.68;104707;1276;101484;-90
2023/02/15 10:33:09;;;;;;;46.00;26.50;;;;;;;4.87;93.69;102214.29;105037;1280;99112;-86
2023/02/15 10:36:23;;;;;;;;;;;;;;;;;;;;;
2023/02/15 10:39:18;;;;;;;47.80;28.90;;;;;;;4.89;93.89;102215.20;104272;1281;98025;-78
2023/02/15 10:42:34;;;;;;;46.90;26.90;;;;;;;4.89;93.79;102212.02;104732;1282;98021;-89
2023/02/15 10:45:29;;;;;;;46.40;28.40;;;;;;;4.89;93.89;102205.45;104825;1280;102226;-85
2023/02/15 10:48:23;;;;;;;52.30;30.90;;;;;;;4.90;93.77;102204.85;104454;1282;100399;-76
2023/02/15 10:51:15;;;;;;;54.40;32.50;;;;;;;4.90;93.75;102203.12;103712;1282;98036;-77
2023/02/15 10:54:36;;;;;;;58.90;30.90;;;;;;;4.90;93.82;102202.38;104728;1279;97936;-84
2023/02/15 10:57:44;;;;;;;46.70;28.60;;;;;;;4.90;93.78;102200.11;105065;1279;98160;-87
2023/02/15 11:00:49;;;;;;;50.80;29.50;;;;;;;4.87;93.73;102194.11;104690;1279;101474;-80
2023/02/15 11:03:37;;;;;;;54.50;31.30;;;;;;;4.89;93.96;102195.03;104547;1279;100668;-80
2023/02/15 11:06:22;;;;;;;56.90;31.30;;;;;;;4.92;93.93;102192.19;104843;1279;98139;-78
2023/02/15 11:09:13;;;;;;;52.30;30.20;;;;;;;4.94;94.11;102189.71;104394;1280;97925;-82
2023/02/15 11:12:00;;;;;;;50.00;30.10;;;;;;;4.97;94.19;102187.90;105157;1282;98456;-79
2023/02/15 11:14:53;;;;;;;52.10;28.80;;;;;;;4.99;94.03;102190.23;104570;1282;102525;-82
2023/02/15 11:17:48;;;;;;;51.40;29.60;;;;;;;5.01;93.79;102188.84;104497;1280;101550;-85
2023/02/15 11:20:49;;;;;;;59.90;31.00;;;;;;;5.00;93.61;102184.61;104333;1282;99219;-84
2023/02/15 11:23:40;;;;;;;52.70;31.90;;;;;;;4.99;93.99;102185.40;104411;1280;98017;-83
2023/02/15 11:26:33;;;;;;;;;;;;;;;5.01;94.10;102182.42;104652;1279;98021;-86
2023/02/15 11:29:25;;;;;;;55.60;30.60;;;;;;;5.04;94.22;102179.73;104996;1280;101445;-86
2023/02/15 11:32:26;;;;;;;57.20;31.70;;;;;;;5.06;93.92;102175.88;104969;1284;100239;-87
2023/02/15 11:35:12;;;;;;;55.30;32.90;;;;;;;5.07;93.86;102172.27;104696;1278;98034;-86
2023/02/15 11:38:05;;;;;;;54.00;31.10;;;;;;;5.08;93.99;102170.08;104970;1280;96431;-80
2023/02/15 11:40:58;;;;;;;55.80;30.90;;;;;;;5.09;93.94;102165.22;104868;1280;97909;-83
2023/02/15 11:43:56;;;;;;;64.80;36.00;;;;;;;5.09;93.93;102162.69;104884;1280;102624;-82
2023/02/15 11:46:42;;;;;;;49.90;28.20;;;;;;;5.13;93.80;102162.27;104845;1278;99272;-88
2023/02/15 11:49:38;;;;;;;50.50;29.60;;;;;;;5.14;93.70;102157.93;104630;1279;97808;-86
2023/02/15 11:52:28;;;;;;;53.00;28.90;;;;;;;5.14;93.56;102151.17;105301;1285;97995;-90
2023/02/15 11:55:23;;;;;;;51.50;29.20;;;;;;;5.16;93.87;102140.95;104627;1279;98459;-77
2023/02/15 11:58:21;;;;;;;46.30;28.40;;;;;;;5.18;93.73;102131.95;103739;1279;102786;-77
2023/02/15 12:01:25;;;;;;;50.20;29.60;;;;;;;5.17;93.70;102131.86;103909;1282;100509;-77
2023/02/15 12:04:40;;;;;;;48.70;27.60;;;;;;;5.16;93.94;102129.77;103882;1281;98011;-78
2023/02/15 12:07:31;;;;;;;51.90;28.40;;;;;;;5.18;93.86;102127.71;103916;1280;98008;-78
2023/02/15 12:10:30;;;;;;;53.00;30.20;;;;;;;5.19;93.99;102128.00;103961;1282;97987;-81
2023/02/15 12:13:18;;;;;;;125.30;54.80;;;;;;;5.22;94.26;102123.66;104725;1282;102379;-88
2023/02/15 12:16:12;;;;;;;89.70;45.80;;;;;;;5.22;93.76;102122.77;105297;1279;100553;-91
2023/02/15 12:19:00;;;;;;;86.30;47.10;;;;;;;5.22;93.72;102122.44;103470;1285;98499;-77
2023/02/15 12:21:50;;;;;;;56.00;32.00;;;;;;;5.21;93.64;102120.23;103857;1282;98097;-79
2023/02/15 12:24:46;;;;;;;55.40;31.00;;;;;;;5.20;93.64;102115.16;106700;1279;95643;-78
2023/02/15 12:27:34;;;;;;;58.20;33.20;;;;;;;5.21;93.61;102112.55;103694;1282;103230;-76
2023/02/15 12:30:21;;;;;;;59.70;33.40;;;;;;;5.23;93.65;102108.17;103939;1279;99227;-76
2023/02/15 12:33:16;;;;;;;55.80;31.50;;;;;;;5.25;93.65;102106.05;103535;1280;98983;-76
2023/02/15 12:36:10;;;;;;;52.00;30.60;;;;;;;5.25;93.64;102102.52;103624;1280;98168;-76
2023/02/15 12:39:19;;;;;;;54.20;30.60;;;;;;;5.23;93.52;102100.01;103784;1281;98196;-81
2023/02/15 12:42:15;;;;;;;57.80;32.90;;;;;;;5.23;93.64;102099.88;104924;1280;101498;-83
2023/02/15 12:45:41;;;;;;;53.00;31.30;;;;;;;5.24;93.77;102099.98;104704;1280;99473;-87
2023/02/15 12:48:26;;;;;;;61.30;35.70;;;;;;;5.26;93.54;102096.48;104269;1280;98394;-78
2023/02/15 12:51:15;;;;;;;57.00;32.10;;;;;;;5.27;93.71;102095.30;104120;1282;98999;-79
2023/02/15 12:54:03;;;;;;;58.90;32.50;;;;;;;5.29;93.71;102092.69;104171;1281;97912;-78
2023/02/15 12:56:48;;;;;;;51.80;29.90;;;;;;;5.31;93.85;102082.96;103972;1282;102654;-77
2023/02/15 12:59:33;;;;;;;49.70;29.20;;;;;;;5.30;93.83;102082.11;104054;1285;100354;-78
2023/02/15 13:02:23;;;;;;;51.40;30.00;;;;;;;5.30;93.79;102079.86;104051;1279;98048;-81
2023/02/15 13:05:33;;;;;;;52.20;27.80;;;;;;;5.28;93.67;102078.91;103943;1282;97914;-78
2023/02/15 13:08:40;;;;;;;50.20;26.40;;;;;;;5.29;93.65;102070.34;103903;1279;98543;-78
2023/02/15 13:11:33;;;;;;;47.20;26.70;;;;;;;5.31;93.49;102061.86;103735;1280;101323;-78
2023/02/15 13:14:22;;;;;;;52.20;29.90;;;;;;;5.32;93.54;102062.45;104292;1280;101137;-77
2023/02/15 13:17:09;;;;;;;48.40;29.20;;;;;;;5.34;93.57;102061.27;103977;1282;97929;-78
2023/02/15 13:19:54;;;;;;;50.10;31.10;;;;;;;5.35;93.61;102056.45;103966;1282;98041;-78
2023/02/15 13:22:44;;;;;;;51.50;30.70;;;;;;;5.32;93.36;102052.55;104063;1281;97934;-79
2023/02/15 13:25:35;;;;;;;52.40;30.50;;;;;;;5.31;93.37;102054.57;103893;1280;101490;-78
2023/02/15 13:28:24;;;;;;;56.10;30.50;;;;;;;5.31;93.27;102057.80;104351;1279;99367;-85
2023/02/15 13:31:15;;;;;;;58.60;31.20;;;;;;;5.29;93.14;102058.77;103811;1285;98833;-78
2023/02/15 13:34:09;;;;;;;55.10;31.40;;;;;;;5.30;93.20;102062.13;105332;1280;97934;-78
2023/02/15 13:37:04;;;;;;;61.10;32.20;;;;;;;5.28;93.13;102057.52;104886;1282;97822;-79
2023/02/15 13:39:55;;;;;;;62.60;33.20;;;;;;;5.28;93.15;102058.20;105496;1282;103629;-80
2023/02/15 13:42:46;;;;;;;55.10;31.70;;;;;;;5.29;93.31;102055.97;105475;1282;100211;-80